createdAt,value
2018-11-11T00:00:33.567Z,100.00
2018-11-11T00:03:03.899Z,100.00
2018-11-11T00:05:34.402Z,100.00
2018-11-11T00:08:04.146Z,100.00
2018-11-11T00:10:34.110Z,100.00
2018-11-11T00:13:04.154Z,99.81
2018-11-11T00:15:33.918Z,99.18
2018-11-11T00:18:03.613Z,99.19
2018-11-11T00:20:33.575Z,95.42
2018-11-11T00:23:03.243Z,96.98
2018-11-11T00:25:32.703Z,99.73
2018-11-11T00:28:02.760Z,97.76
2018-11-11T00:30:32.524Z,97.17
2018-11-11T00:33:02.348Z,96.78
2018-11-11T00:35:32.573Z,97.65
2018-11-11T00:38:02.643Z,97.30
2018-11-11T00:40:33.475Z,97.49
2018-11-11T00:43:04.231Z,96.22
2018-11-11T00:45:34.393Z,95.96
2018-11-11T00:48:03.965Z,96.10
2018-11-11T00:50:33.842Z,96.18
2018-11-11T00:53:03.735Z,97.44
2018-11-11T00:55:40.477Z,98.61
2018-11-11T00:58:11.939Z,98.56
2018-11-11T01:00:41.631Z,99.69
2018-11-11T01:03:11.654Z,99.00
2018-11-11T01:05:41.472Z,100.00
2018-11-11T01:08:11.371Z,100.00
2018-11-11T01:10:41.430Z,100.00
2018-11-11T01:13:11.549Z,100.00
2018-11-11T01:15:42.685Z,100.00
2018-11-11T01:18:12.733Z,100.00
2018-11-11T01:20:42.858Z,100.00
2018-11-11T01:23:13.960Z,100.00
2018-11-11T01:25:43.696Z,100.00
2018-11-11T01:28:13.366Z,100.00
2018-11-11T01:30:43.185Z,100.00
2018-11-11T01:33:13.219Z,100.00
2018-11-11T01:35:43.170Z,100.00
2018-11-11T01:38:14.031Z,100.00
2018-11-11T01:40:44.360Z,100.00
2018-11-11T01:43:14.562Z,100.00
2018-11-11T01:45:44.290Z,100.00
2018-11-11T01:48:13.909Z,100.00
2018-11-11T01:50:43.876Z,100.00
2018-11-11T01:53:14.352Z,100.00
2018-11-11T01:55:44.678Z,100.00
2018-11-11T01:58:14.755Z,100.00
2018-11-11T02:00:45.430Z,100.00
2018-11-11T02:03:16.928Z,100.00
2018-11-11T02:05:47.030Z,100.00
2018-11-11T02:08:16.893Z,100.00
2018-11-11T02:10:46.445Z,100.00
2018-11-11T02:13:16.668Z,100.00
2018-11-11T02:15:47.695Z,100.00
2018-11-11T02:18:17.785Z,100.00
2018-11-11T02:20:47.928Z,100.00
2018-11-11T02:23:17.511Z,100.00
2018-11-11T02:25:47.394Z,100.00
2018-11-11T02:28:17.749Z,100.00
2018-11-11T02:30:48.699Z,100.00
2018-11-11T02:33:18.319Z,100.00
2018-11-11T02:35:48.408Z,100.00
2018-11-11T02:38:18.869Z,100.00
2018-11-11T02:40:48.631Z,100.00
2018-11-11T02:43:18.330Z,100.00
2018-11-11T02:45:48.659Z,100.00
2018-11-11T02:48:18.385Z,100.00
2018-11-11T02:50:48.725Z,100.00
2018-11-11T02:53:18.300Z,100.00
2018-11-11T02:55:48.023Z,100.00
2018-11-11T02:58:17.801Z,100.00
2018-11-11T03:00:48.147Z,100.00
2018-11-11T03:03:18.125Z,100.00
2018-11-11T03:05:47.740Z,100.00
2018-11-11T03:08:17.588Z,100.00
2018-11-11T03:10:47.580Z,100.00
2018-11-11T03:13:17.676Z,100.00
2018-11-11T03:15:48.997Z,100.00
2018-11-11T03:18:18.786Z,100.00
2018-11-11T03:20:48.264Z,100.00
2018-11-11T03:23:18.358Z,100.00
2018-11-11T03:25:47.863Z,100.00
2018-11-11T03:28:17.770Z,100.00
2018-11-11T03:30:47.664Z,100.00
2018-11-11T03:33:17.285Z,100.00
2018-11-11T03:35:47.059Z,100.00
2018-11-11T03:38:17.169Z,100.00
2018-11-11T03:40:47.858Z,100.00
2018-11-11T03:43:18.646Z,100.00
2018-11-11T03:45:48.256Z,100.00
2018-11-11T03:48:18.808Z,100.00
2018-11-11T03:50:48.686Z,100.00
2018-11-11T03:53:18.309Z,100.00
2018-11-11T03:55:48.929Z,100.00
2018-11-11T03:58:19.414Z,100.00
2018-11-11T04:00:49.480Z,100.00
2018-11-11T04:03:19.581Z,100.00
2018-11-11T04:05:48.997Z,100.00
2018-11-11T04:08:19.408Z,100.00
2018-11-11T04:10:49.499Z,100.00
2018-11-11T04:13:20.666Z,100.00
2018-11-11T04:15:50.550Z,100.00
2018-11-11T04:18:20.509Z,100.00
2018-11-11T04:20:49.956Z,100.00
2018-11-11T04:23:20.389Z,100.00
2018-11-11T04:25:50.649Z,100.00
2018-11-11T04:28:20.252Z,100.00
2018-11-11T04:30:50.384Z,100.00
2018-11-11T04:33:20.778Z,100.00
2018-11-11T04:35:50.848Z,100.00
2018-11-11T04:38:23.286Z,100.00
2018-11-11T04:40:52.967Z,100.00
2018-11-11T04:43:23.234Z,100.00
2018-11-11T04:45:53.151Z,100.00
2018-11-11T04:48:22.984Z,100.00
2018-11-11T04:50:52.819Z,100.00
2018-11-11T04:53:22.963Z,100.00
2018-11-11T04:55:52.925Z,100.00
2018-11-11T04:58:25.199Z,100.00
2018-11-11T05:00:55.448Z,100.00
2018-11-11T05:03:25.924Z,100.00
2018-11-11T05:05:55.672Z,100.00
2018-11-11T05:08:26.659Z,100.00
2018-11-11T05:10:56.862Z,100.00
2018-11-11T05:13:26.465Z,100.00
2018-11-11T05:15:56.372Z,100.00
2018-11-11T05:18:27.439Z,100.00
2018-11-11T05:20:57.095Z,100.00
2018-11-11T05:23:27.794Z,100.00
2018-11-11T05:25:57.922Z,100.00
2018-11-11T05:28:27.862Z,100.00
2018-11-11T05:30:57.984Z,100.00
2018-11-11T05:33:28.838Z,100.00
2018-11-11T05:35:58.421Z,100.00
2018-11-11T05:38:29.197Z,100.00
2018-11-11T05:41:04.633Z,100.00
2018-11-11T05:43:34.910Z,100.00
2018-11-11T05:46:05.243Z,100.00
2018-11-11T05:48:35.085Z,100.00
2018-11-11T05:51:05.398Z,100.00
2018-11-11T05:53:36.456Z,100.00
2018-11-11T05:56:07.733Z,100.00
2018-11-11T05:58:37.665Z,100.00
2018-11-11T06:01:08.178Z,100.00
2018-11-11T06:03:38.737Z,100.00
2018-11-11T06:06:10.025Z,100.00
2018-11-11T06:08:40.281Z,100.00
2018-11-11T06:11:10.377Z,100.00
2018-11-11T06:13:40.350Z,100.00
2018-11-11T06:16:09.927Z,100.00
2018-11-11T06:18:40.451Z,100.00
2018-11-11T06:21:10.102Z,100.00
2018-11-11T06:23:39.722Z,100.00
2018-11-11T06:26:10.997Z,100.00
2018-11-11T06:28:41.116Z,100.00
2018-11-11T06:31:11.105Z,100.00
2018-11-11T06:33:41.304Z,100.00
2018-11-11T06:36:11.116Z,100.00
2018-11-11T06:38:41.320Z,100.00
2018-11-11T06:41:11.435Z,100.00
2018-11-11T06:43:41.308Z,100.00
2018-11-11T06:46:11.104Z,100.00
2018-11-11T06:48:41.714Z,100.00
2018-11-11T06:51:11.454Z,100.00
2018-11-11T06:53:41.344Z,100.00
2018-11-11T06:56:11.908Z,100.00
2018-11-11T06:58:41.741Z,99.07
2018-11-11T07:01:12.060Z,98.40
2018-11-11T07:03:55.442Z,99.87
2018-11-11T07:06:25.557Z,94.11
2018-11-11T07:08:55.926Z,100.00
2018-11-11T07:11:25.869Z,97.29
2018-11-11T07:13:55.616Z,93.67
2018-11-11T07:16:25.386Z,96.74
2018-11-11T07:18:55.396Z,94.25
2018-11-11T07:21:25.529Z,95.83
2018-11-11T07:23:55.485Z,92.78
2018-11-11T07:26:25.313Z,99.48
2018-11-11T07:28:55.217Z,97.87
2018-11-11T07:31:25.511Z,94.39
2018-11-11T07:33:55.740Z,91.06
2018-11-11T07:36:25.782Z,85.34
2018-11-11T07:38:57.695Z,86.20
2018-11-11T07:41:28.170Z,91.57
2018-11-11T07:43:58.355Z,91.39
2018-11-11T07:46:28.174Z,92.73
2018-11-11T07:48:57.815Z,90.51
2018-11-11T07:51:28.294Z,85.27
2018-11-11T07:53:57.814Z,86.17
2018-11-11T07:56:27.923Z,86.59
2018-11-11T07:58:57.869Z,82.95
2018-11-11T08:01:28.475Z,84.83
2018-11-11T08:03:58.429Z,84.73
2018-11-11T08:06:28.661Z,83.95
2018-11-11T08:09:06.880Z,85.87
2018-11-11T08:11:56.903Z,80.79
2018-11-11T08:14:38.272Z,82.22
2018-11-11T08:17:07.972Z,87.02
2018-11-11T08:19:38.041Z,83.80
2018-11-11T08:22:08.127Z,91.85
2018-11-11T08:24:37.716Z,88.27
2018-11-11T08:27:08.781Z,80.80
2018-11-11T08:29:38.731Z,81.61
2018-11-11T08:32:09.827Z,88.31
2018-11-11T08:34:39.299Z,86.18
2018-11-11T08:37:09.499Z,83.50
2018-11-11T08:39:39.162Z,86.04
2018-11-11T08:42:08.810Z,92.62
2018-11-11T08:44:38.569Z,86.67
2018-11-11T08:47:07.672Z,88.39
2018-11-11T08:49:37.111Z,87.51
2018-11-11T08:52:07.071Z,82.63
2018-11-11T08:54:36.579Z,73.85
2018-11-11T08:57:05.969Z,80.61
2018-11-11T08:59:35.793Z,85.92
2018-11-11T09:02:05.111Z,81.30
2018-11-11T09:04:35.041Z,77.04
2018-11-11T09:07:04.507Z,79.69
2018-11-11T09:09:34.050Z,87.38
2018-11-11T09:12:04.085Z,86.87
2018-11-11T09:14:34.691Z,83.86
2018-11-11T09:17:05.369Z,88.00
2018-11-11T09:19:35.608Z,84.58
2018-11-11T09:22:05.792Z,88.44
2018-11-11T09:24:35.502Z,100.00
2018-11-11T09:27:06.030Z,96.09
2018-11-11T09:29:38.180Z,89.39
2018-11-11T09:32:08.841Z,88.22
2018-11-11T09:34:40.309Z,83.41
2018-11-11T09:37:10.074Z,85.00
2018-11-11T09:39:41.359Z,83.13
2018-11-11T09:42:13.602Z,94.39
2018-11-11T09:44:45.325Z,84.21
2018-11-11T09:47:15.209Z,77.91
2018-11-11T09:49:45.051Z,79.59
2018-11-11T09:52:15.527Z,71.11
2018-11-11T09:54:45.887Z,72.54
2018-11-11T09:57:15.744Z,66.72
2018-11-11T09:59:46.893Z,65.12
2018-11-11T10:02:16.565Z,65.64
2018-11-11T10:04:51.534Z,81.67
2018-11-11T10:07:28.177Z,83.99
2018-11-11T10:10:06.542Z,83.33
2018-11-11T10:12:55.488Z,73.75
2018-11-11T10:15:33.228Z,74.13
2018-11-11T10:18:07.683Z,75.08
2018-11-11T10:20:42.318Z,67.05
2018-11-11T10:24:15.133Z,73.10
2018-11-11T10:26:51.115Z,71.61
2018-11-11T10:31:28.085Z,77.13
2018-11-11T10:34:22.100Z,75.17
2018-11-11T10:37:11.949Z,65.60
2018-11-11T10:39:54.485Z,62.96
2018-11-11T10:42:35.462Z,62.56
2018-11-11T10:45:12.252Z,68.42
2018-11-11T10:48:21.530Z,62.80
2018-11-11T10:50:59.652Z,65.96
2018-11-11T10:53:29.666Z,59.98
2018-11-11T10:56:01.133Z,55.67
2018-11-11T10:58:34.822Z,62.10
2018-11-11T11:01:13.182Z,66.19
2018-11-11T11:03:43.886Z,56.87
2018-11-11T11:06:13.731Z,61.59
2018-11-11T11:08:49.586Z,66.15
2018-11-11T11:11:19.550Z,67.11
2018-11-11T11:13:49.602Z,67.29
2018-11-11T11:16:19.492Z,69.79
2018-11-11T11:18:52.258Z,66.19
2018-11-11T11:21:23.997Z,63.66
2018-11-11T11:23:53.656Z,64.82
2018-11-11T11:26:24.812Z,74.47
2018-11-11T11:28:54.841Z,65.29
2018-11-11T11:31:25.463Z,66.32
2018-11-11T11:33:56.253Z,63.13
2018-11-11T11:36:26.557Z,68.40
2018-11-11T11:38:57.026Z,68.68
2018-11-11T11:41:26.807Z,64.80
2018-11-11T11:43:57.544Z,62.99
2018-11-11T11:46:28.750Z,69.35
2018-11-11T11:48:59.546Z,70.41
2018-11-11T11:51:30.112Z,69.79
2018-11-11T11:54:01.137Z,66.62
2018-11-11T11:56:32.365Z,63.71
2018-11-11T12:00:02.470Z,60.51
2018-11-11T12:02:32.903Z,67.39
2018-11-11T12:05:02.573Z,72.98
2018-11-11T12:07:33.251Z,71.08
2018-11-11T12:10:02.625Z,65.19
2018-11-11T12:12:33.343Z,62.08
2018-11-11T12:15:04.762Z,62.43
2018-11-11T12:17:34.369Z,62.84
2018-11-11T12:20:04.149Z,63.91
2018-11-11T12:22:35.392Z,71.38
2018-11-11T12:25:06.237Z,69.07
2018-11-11T12:27:37.377Z,62.89
2018-11-11T12:30:07.716Z,63.34
2018-11-11T12:32:38.054Z,63.90
2018-11-11T12:35:09.311Z,61.17
2018-11-11T12:37:39.275Z,58.40
2018-11-11T12:40:11.221Z,62.11
2018-11-11T12:42:42.339Z,61.11
2018-11-11T12:45:15.284Z,62.14
2018-11-11T12:47:44.827Z,59.51
2018-11-11T12:50:15.198Z,57.21
2018-11-11T12:52:44.542Z,55.86
2018-11-11T12:55:15.206Z,71.23
2018-11-11T12:57:48.540Z,85.07
2018-11-11T13:00:18.473Z,71.02
2018-11-11T13:02:49.383Z,71.36
2018-11-11T13:05:19.062Z,71.29
2018-11-11T13:07:49.077Z,69.32
2018-11-11T13:10:19.326Z,65.06
2018-11-11T13:12:48.999Z,68.15
2018-11-11T13:15:18.665Z,67.12
2018-11-11T13:17:48.025Z,65.18
2018-11-11T13:20:19.286Z,67.74
2018-11-11T13:22:48.663Z,68.16
2018-11-11T13:25:18.147Z,66.00
2018-11-11T13:27:49.031Z,62.76
2018-11-11T13:30:18.726Z,62.81
2018-11-11T13:32:48.385Z,62.29
2018-11-11T13:35:19.229Z,63.37
2018-11-11T13:37:49.059Z,72.40
2018-11-11T13:40:20.250Z,64.28
2018-11-11T13:42:50.776Z,59.42
2018-11-11T13:45:21.833Z,55.94
2018-11-11T13:47:52.166Z,59.27
2018-11-11T13:50:23.055Z,57.73
2018-11-11T13:52:52.843Z,60.68
2018-11-11T13:55:24.138Z,57.91
2018-11-11T13:57:54.128Z,57.76
2018-11-11T14:00:30.973Z,58.10
2018-11-11T14:03:00.556Z,62.45
2018-11-11T14:05:30.769Z,61.87
2018-11-11T14:08:00.783Z,63.94
2018-11-11T14:10:30.665Z,62.14
2018-11-11T14:13:00.806Z,62.89
2018-11-11T14:15:31.066Z,62.77
2018-11-11T14:18:01.521Z,61.69
2018-11-11T14:20:31.284Z,64.85
2018-11-11T14:23:01.807Z,65.14
2018-11-11T14:25:31.888Z,67.34
2018-11-11T14:28:02.120Z,66.12
2018-11-11T14:30:53.777Z,68.31
2018-11-11T14:33:24.709Z,70.35
2018-11-11T14:35:55.640Z,72.55
2018-11-11T14:38:25.889Z,71.59
2018-11-11T14:40:55.804Z,76.30
2018-11-11T14:43:26.630Z,72.79
2018-11-11T14:45:56.254Z,74.71
2018-11-11T14:48:26.648Z,76.13
2018-11-11T14:50:56.593Z,79.45
2018-11-11T14:53:26.462Z,78.75
2018-11-11T14:55:56.684Z,84.23
2018-11-11T14:58:26.417Z,83.14
2018-11-11T15:00:56.594Z,83.74
2018-11-11T15:03:26.202Z,84.26
2018-11-11T15:05:56.654Z,83.55
2018-11-11T15:08:28.381Z,84.64
2018-11-11T15:11:00.526Z,85.10
2018-11-11T15:13:30.634Z,83.66
2018-11-11T15:16:00.626Z,85.80
2018-11-11T15:18:30.404Z,89.35
2018-11-11T15:21:00.268Z,86.64
2018-11-11T15:23:30.593Z,88.47
2018-11-11T15:26:02.104Z,87.59
2018-11-11T15:28:33.614Z,91.93
2018-11-11T15:31:03.474Z,88.38
2018-11-11T15:33:33.602Z,91.07
2018-11-11T15:36:03.390Z,91.13
2018-11-11T15:38:35.270Z,90.17
2018-11-11T15:41:05.282Z,93.73
2018-11-11T15:43:35.228Z,89.97
2018-11-11T15:46:05.775Z,90.01
2018-11-11T15:48:37.106Z,92.46
2018-11-11T15:51:07.081Z,91.96
2018-11-11T15:53:38.013Z,93.99
2018-11-11T15:56:08.198Z,92.53
2018-11-11T15:58:38.296Z,92.56
2018-11-11T16:01:08.066Z,94.15
2018-11-11T16:03:38.393Z,93.29
2018-11-11T16:06:08.579Z,93.19
2018-11-11T16:08:38.794Z,94.90
2018-11-11T16:11:09.849Z,93.82
2018-11-11T16:13:40.523Z,94.19
2018-11-11T16:16:10.886Z,95.04
2018-11-11T16:18:42.126Z,92.93
2018-11-11T16:21:12.318Z,94.25
2018-11-11T16:23:42.568Z,95.02
2018-11-11T16:26:12.473Z,93.99
2018-11-11T16:28:42.500Z,94.90
2018-11-11T16:31:12.595Z,94.31
2018-11-11T16:33:44.087Z,94.67
2018-11-11T16:36:14.954Z,96.27
2018-11-11T16:38:46.721Z,94.95
2018-11-11T16:41:16.708Z,94.18
2018-11-11T16:43:46.828Z,94.10
2018-11-11T16:46:16.367Z,94.42
2018-11-11T16:48:47.169Z,93.92
2018-11-11T16:51:17.598Z,94.15
2018-11-11T16:53:47.345Z,95.05
2018-11-11T16:56:17.395Z,94.79
2018-11-11T16:58:47.209Z,94.26
2018-11-11T17:01:18.738Z,92.72
2018-11-11T17:03:48.744Z,92.71
2018-11-11T17:06:19.382Z,92.32
2018-11-11T17:22:47.579Z,86.82
2018-11-11T17:27:55.145Z,84.37
2018-11-11T17:30:26.210Z,83.94
2018-11-11T17:32:56.760Z,85.39
2018-11-11T17:35:25.881Z,83.54
2018-11-11T17:37:55.232Z,88.00
2018-11-11T17:40:27.535Z,82.20
2018-11-11T17:42:59.959Z,82.75
2018-11-11T17:45:29.471Z,80.36
2018-11-11T17:47:59.129Z,80.84
2018-11-11T17:50:33.290Z,80.52
2018-11-11T17:53:06.266Z,79.18
2018-11-11T17:55:36.622Z,79.36
2018-11-11T17:58:07.566Z,89.12
2018-11-11T18:00:40.217Z,77.78
2018-11-11T18:03:16.528Z,77.43
2018-11-11T18:05:46.812Z,78.01
2018-11-11T18:11:39.346Z,78.65
2018-11-11T18:16:47.103Z,88.53
2018-11-11T18:19:17.699Z,83.23
2018-11-11T18:21:48.246Z,76.87
2018-11-11T18:24:19.529Z,77.13
2018-11-11T18:26:49.797Z,76.90
2018-11-11T18:29:18.958Z,75.44
2018-11-11T18:31:49.622Z,75.21
2018-11-11T18:34:18.773Z,74.47
2018-11-11T18:36:50.763Z,75.49
2018-11-11T18:39:24.375Z,76.11
2018-11-11T18:41:56.115Z,76.00
2018-11-11T18:44:26.989Z,76.54
2018-11-11T18:46:58.435Z,78.19
2018-11-11T18:49:30.154Z,85.91
2018-11-11T18:52:00.170Z,77.36
2018-11-11T18:54:31.207Z,78.40
2018-11-11T18:57:02.356Z,77.72
2018-11-11T18:59:33.937Z,77.69
2018-11-11T19:02:04.429Z,72.77
2018-11-11T19:04:41.279Z,80.54
2018-11-11T19:07:15.381Z,84.14
2018-11-11T19:09:44.800Z,89.50
2018-11-11T19:12:17.045Z,88.18
2018-11-11T19:14:49.474Z,87.39
2018-11-11T19:17:27.739Z,92.35
2018-11-11T19:20:01.265Z,88.36
2018-11-11T19:22:31.605Z,87.12
2018-11-11T19:25:02.052Z,85.82
2018-11-11T19:27:32.041Z,88.22
2018-11-11T19:30:02.624Z,84.77
2018-11-11T19:32:36.324Z,85.76
2018-11-11T19:35:07.290Z,88.10
2018-11-11T19:37:37.601Z,88.25
2018-11-11T19:40:10.847Z,87.30
2018-11-11T19:42:41.299Z,88.89
2018-11-11T19:45:12.524Z,89.29
2018-11-11T19:47:46.523Z,88.61
2018-11-11T19:50:19.794Z,86.87
2018-11-11T19:52:51.029Z,88.32
2018-11-11T19:55:23.619Z,88.66
2018-11-11T19:57:53.277Z,87.93
2018-11-11T20:00:27.996Z,85.48
2018-11-11T20:02:58.680Z,88.65
2018-11-11T20:05:28.186Z,91.07
2018-11-11T20:07:59.224Z,89.80
2018-11-11T20:10:31.079Z,89.58
2018-11-11T20:13:03.453Z,89.54
2018-11-11T20:15:38.581Z,88.60
2018-11-11T20:18:10.545Z,87.72
2018-11-11T20:20:45.712Z,87.74
2018-11-11T20:23:19.108Z,89.47
2018-11-11T20:25:56.893Z,87.16
2018-11-11T20:28:33.783Z,90.47
2018-11-11T20:31:15.413Z,90.90
2018-11-11T20:33:46.684Z,93.59
2018-11-11T20:36:17.225Z,82.58
2018-11-11T20:38:47.483Z,87.46
2018-11-11T20:41:17.809Z,88.14
2018-11-11T20:43:48.070Z,86.96
2018-11-11T20:46:17.781Z,88.45
2018-11-11T20:48:47.312Z,93.42
2018-11-11T20:51:16.667Z,94.65
2018-11-11T20:53:46.340Z,95.91
2018-11-11T20:56:15.688Z,97.80
2018-11-11T20:58:44.818Z,99.99
2018-11-11T21:01:14.656Z,100.00
2018-11-11T21:03:44.059Z,100.00
2018-11-11T21:06:13.574Z,100.00
2018-11-11T21:08:43.188Z,100.00
2018-11-11T21:11:12.410Z,100.00
2018-11-11T21:13:41.782Z,100.00
2018-11-11T21:16:11.152Z,100.00
2018-11-11T21:18:41.121Z,100.00
2018-11-11T21:21:10.533Z,100.00
2018-11-11T21:23:40.168Z,100.00
2018-11-11T21:26:09.573Z,100.00
2018-11-11T21:28:38.775Z,100.00
2018-11-11T21:31:08.142Z,100.00
2018-11-11T21:33:37.541Z,100.00
2018-11-11T21:36:06.888Z,100.00
2018-11-11T21:38:36.295Z,100.00
2018-11-11T21:41:05.736Z,100.00
2018-11-11T21:43:35.045Z,100.00
2018-11-11T21:46:04.254Z,100.00
2018-11-11T21:48:33.690Z,100.00
2018-11-11T21:51:02.981Z,100.00
2018-11-11T21:53:37.853Z,100.00
2018-11-11T21:56:07.471Z,100.00
2018-11-11T21:58:36.787Z,100.00
2018-11-11T22:01:06.922Z,100.00
2018-11-11T22:03:36.185Z,100.00
2018-11-11T22:06:05.669Z,100.00
2018-11-11T22:08:34.883Z,100.00
2018-11-11T22:11:04.256Z,100.00
2018-11-11T22:13:33.521Z,98.14
2018-11-11T22:16:02.795Z,98.98
2018-11-11T22:18:31.926Z,100.00
2018-11-11T22:21:01.231Z,100.00
2018-11-11T22:23:30.535Z,100.00
2018-11-11T22:25:59.834Z,100.00
2018-11-11T22:28:29.227Z,100.00
2018-11-11T22:30:58.546Z,100.00
2018-11-11T22:33:27.748Z,100.00
2018-11-11T22:35:56.998Z,100.00
2018-11-11T22:38:26.417Z,100.00
2018-11-11T22:40:55.772Z,100.00
2018-11-11T22:43:25.077Z,100.00
2018-11-11T22:45:54.218Z,100.00
2018-11-11T22:48:23.397Z,100.00
2018-11-11T22:50:52.760Z,100.00
2018-11-11T22:53:21.946Z,100.00
2018-11-11T22:55:51.158Z,100.00
2018-11-11T22:58:20.338Z,100.00
2018-11-11T23:01:23.136Z,100.00
2018-11-11T23:03:52.402Z,100.00
2018-11-11T23:06:21.604Z,100.00
2018-11-11T23:08:51.069Z,100.00
2018-11-11T23:11:20.184Z,100.00
2018-11-11T23:13:49.346Z,100.00
2018-11-11T23:16:18.723Z,100.00
2018-11-11T23:18:47.838Z,100.00
2018-11-11T23:21:16.984Z,100.00
2018-11-11T23:23:46.265Z,100.00
2018-11-11T23:26:15.653Z,100.00
2018-11-11T23:28:44.841Z,100.00
2018-11-11T23:31:14.056Z,100.00
2018-11-11T23:33:43.284Z,100.00
2018-11-11T23:36:12.411Z,100.00
2018-11-11T23:38:41.759Z,100.00
2018-11-11T23:41:10.978Z,99.86
2018-11-11T23:43:40.068Z,99.23
2018-11-11T23:46:09.659Z,100.00
2018-11-11T23:48:38.936Z,100.00
2018-11-11T23:51:08.156Z,100.00
2018-11-11T23:53:37.371Z,100.00
2018-11-11T23:56:06.960Z,100.00
2018-11-11T23:58:36.084Z,100.00
